Terminal Aerodrome Forecast
Issued by NWS Boston, MA

Home | Current Version | Previous Version | Text Only | Print | Product List | Glossary On
Versions: 1 2 3 4 5 6 7 8 9 10 11 12 13 14 15 16 17 18 19 20 21 22 23 24 25 26 27 28 29 30 31 32 33 34 35 36 37 38 39 40 41 42 43 44 45 46 47 48 49 50
000
FTUS41 KBOX 190305 AAA
TAFORH
TAF AMD
KORH 190305Z 1903/1924 03007KT 1/2SM -FZDZ FZFG VV002
     FM190700 VRB03KT 1/2SM FZFG OVC003
     FM191100 27005KT 3/4SM BR OVC015
     FM191500 29005KT P6SM SCT110=

USA.gov is the U.S. government's official web portal to all federal, state and local government web resources and services.